createdAt,value
2018-02-21T00:01:45.428Z,99.99
2018-02-21T00:11:45.113Z,99.99
2018-02-21T00:21:44.958Z,99.40
2018-02-21T00:31:46.590Z,99.30
2018-02-21T00:41:50.099Z,99.40
2018-02-21T00:51:49.878Z,99.30
2018-02-21T01:01:51.258Z,99.99
2018-02-21T01:11:49.689Z,99.99
2018-02-21T01:21:48.663Z,99.93
2018-02-21T01:31:49.097Z,99.99
2018-02-21T01:41:52.247Z,99.35
2018-02-21T01:51:53.768Z,99.99
2018-02-21T02:01:54.337Z,99.99
2018-02-21T02:11:51.763Z,99.99
2018-02-21T02:21:54.594Z,99.99
2018-02-21T02:31:53.756Z,99.88
2018-02-21T02:41:55.385Z,99.88
2018-02-21T02:51:54.930Z,99.98
2018-02-21T03:01:56.407Z,99.99
2018-02-21T03:11:56.406Z,99.98
2018-02-21T03:21:55.993Z,99.99
2018-02-21T03:31:56.574Z,99.99
2018-02-21T03:41:59.998Z,99.99
2018-02-21T03:51:59.822Z,99.98
2018-02-21T04:02:00.545Z,99.98
2018-02-21T04:12:05.602Z,99.67
2018-02-21T04:22:06.816Z,99.99
2018-02-21T04:32:06.061Z,99.57
2018-02-21T04:42:04.995Z,99.41
2018-02-21T04:52:07.393Z,99.46
2018-02-21T05:02:07.320Z,99.99
2018-02-21T05:12:07.673Z,99.99
2018-02-21T05:22:07.691Z,99.41
2018-02-21T05:32:07.655Z,99.99
2018-02-21T05:42:08.924Z,99.25
2018-02-21T05:52:08.794Z,99.21
2018-02-21T06:02:09.138Z,99.84
2018-02-21T06:12:09.788Z,99.99
2018-02-21T06:22:09.623Z,99.99
2018-02-21T06:32:11.632Z,98.85
2018-02-21T06:42:09.266Z,98.74
2018-02-21T06:52:09.436Z,97.75
2018-02-21T07:02:08.953Z,98.07
2018-02-21T07:12:03.260Z,97.92
2018-02-21T07:22:02.112Z,97.45
2018-02-21T07:32:03.791Z,92.50
2018-02-21T07:42:04.823Z,88.39
2018-02-21T07:52:03.604Z,88.03
2018-02-21T08:02:00.831Z,94.65
2018-02-21T08:12:00.410Z,93.98
2018-02-21T08:21:55.805Z,92.10
2018-02-21T08:31:50.636Z,89.06
2018-02-21T08:41:48.617Z,88.64
2018-02-21T08:51:49.422Z,90.20
2018-02-21T09:01:49.637Z,88.95
2018-02-21T09:11:47.741Z,89.14
2018-02-21T09:21:45.804Z,85.94
2018-02-21T09:31:45.516Z,89.41
2018-02-21T09:41:45.388Z,86.00
2018-02-21T09:51:43.492Z,87.85
2018-02-21T10:01:40.287Z,86.71
2018-02-21T10:11:38.227Z,89.81
2018-02-21T10:21:34.179Z,89.39
2018-02-21T10:31:31.753Z,84.22
2018-02-21T10:41:29.539Z,86.15
2018-02-21T10:51:32.241Z,76.42
2018-02-21T11:01:20.648Z,79.85
2018-02-21T11:11:17.133Z,79.50
2018-02-21T11:21:15.656Z,75.91
2018-02-21T11:31:09.277Z,80.83
2018-02-21T11:41:06.151Z,77.19
2018-02-21T11:51:00.968Z,73.88
2018-02-21T12:00:56.863Z,76.88
2018-02-21T12:10:54.504Z,77.36
2018-02-21T12:20:51.628Z,80.16
2018-02-21T12:30:47.596Z,81.51
2018-02-21T12:40:45.076Z,84.67
2018-02-21T12:50:43.234Z,82.63
2018-02-21T13:00:40.587Z,85.57
2018-02-21T13:10:37.730Z,86.51
2018-02-21T13:20:35.696Z,88.42
2018-02-21T13:30:32.382Z,87.86
2018-02-21T13:40:28.173Z,88.67
2018-02-21T13:50:25.608Z,87.32
2018-02-21T14:00:23.038Z,87.94
2018-02-21T14:10:21.163Z,88.84
2018-02-21T14:20:18.011Z,87.46
2018-02-21T14:30:15.513Z,89.54
2018-02-21T14:40:10.624Z,88.29
2018-02-21T14:50:10.806Z,86.69
2018-02-21T15:00:07.767Z,87.04
2018-02-21T15:10:04.342Z,85.83
2018-02-21T15:20:03.530Z,89.83
2018-02-21T15:29:58.808Z,86.15
2018-02-21T15:39:55.410Z,88.37
2018-02-21T15:49:52.627Z,89.00
2018-02-21T15:59:51.029Z,91.02
2018-02-21T16:09:50.460Z,90.91
2018-02-21T16:19:49.223Z,95.43
2018-02-21T16:29:46.563Z,93.56
2018-02-21T16:39:44.707Z,96.37
2018-02-21T16:49:44.482Z,96.89
2018-02-21T16:59:43.937Z,97.31
2018-02-21T17:09:41.767Z,97.77
2018-02-21T17:19:39.594Z,98.71
2018-02-21T17:29:39.224Z,98.96
2018-02-21T17:39:37.674Z,98.96
2018-02-21T17:49:35.361Z,98.96
2018-02-21T17:59:32.724Z,99.99
2018-02-21T18:09:24.569Z,99.95
2018-02-21T18:19:23.769Z,99.99
2018-02-21T18:29:19.723Z,99.99
2018-02-21T18:39:13.502Z,98.38
2018-02-21T18:49:09.309Z,96.46
2018-02-21T18:59:10.264Z,98.80
2018-02-21T19:09:07.218Z,99.32
2018-02-21T19:19:05.448Z,98.49
2018-02-21T19:29:04.683Z,99.11
2018-02-21T19:39:04.563Z,98.85
2018-02-21T19:48:47.197Z,98.79
2018-02-21T19:58:40.660Z,97.59
2018-02-21T20:08:35.580Z,96.44
2018-02-21T20:18:33.680Z,97.59
2018-02-21T20:28:31.076Z,97.22
2018-02-21T20:38:29.469Z,97.11
2018-02-21T20:48:29.567Z,97.64
2018-02-21T20:58:29.567Z,97.47
2018-02-21T21:08:28.175Z,97.37
2018-02-21T21:18:28.408Z,98.31
2018-02-21T21:28:24.519Z,98.21
2018-02-21T21:38:23.769Z,99.88
2018-02-21T21:48:23.691Z,99.99
2018-02-21T21:58:25.528Z,99.99
2018-02-21T22:08:23.764Z,99.56
2018-02-21T22:18:21.625Z,99.88
2018-02-21T22:28:22.489Z,99.99
2018-02-21T22:38:22.333Z,99.99
2018-02-21T22:48:21.407Z,99.99
2018-02-21T22:58:20.508Z,99.98
2018-02-21T23:08:19.379Z,99.99
2018-02-21T23:18:21.325Z,99.99
2018-02-21T23:28:19.614Z,99.99
2018-02-21T23:38:18.327Z,95.59
2018-02-21T23:48:18.123Z,92.35
2018-02-21T23:58:17.452Z,95.11
